Terminal Aerodrome Forecast
Issued by NWS

Home | Current Version | Previous Version | Text Only | Print | Product List | Glossary On
Versions: 1 2 3 4 5 6 7 8 9 10 11 12 13 14 15 16 17
000
FTUS46 KMTR 301100
TAFOAK
TAF
KOAK 301137Z 3012/3118 33005KT P6SM OVC006
     FM301730 30008KT P6SM SCT006
     FM302100 30012KT P6SM FEW150
     FM310500 30007KT P6SM BKN010
     FM310700 29005KT P6SM OVC007=

USA.gov is the U.S. government's official web portal to all federal, state and local government web resources and services.